Hamdan Nader

Scout - Sharjah
3 Dez 2028
Sonntag
Verarbeitung

Persönlichkeit

Anpassungsfähigkeit (8) Ehrgeiz (14) Kontroverse (17) Loyalität (7) Druck (2) Professionalität (18) Fairness (13) Temperament (1)

Profil

Trainerstil Demokratisch
Lizenz Nationale A
Entschlossenheit 10
Menschenführung 9
Motivation 10
Disziplin 13
Arbeitszufriedenheit
100%
Ermüdung
0%
Rolle Scout
Gehalt 90.4K p/W
Vertrag 14.03.2030

Leistung

Verhalten Gut
Trainingseffektivität
49%
Spielerentwicklung
35%
Verletzungsprävention
45%
Taktische Umsetzung
25%

Letzte Ereignisse

Spieler begutachtet jetzt
Nahm an einer Scouting-Besprechung teil jetzt
Spieler begutachtet jetzt
Spieler begutachtet 7T her
Spieler begutachtet 7T her
Spieler begutachtet 7T her
Spieler begutachtet 7T her
Spieler begutachtet 7T her

Aktuell beobachtet

182
Spieler Verein Status Fähigkeit Vertrauen Beobachtet Zuletzt beobachtet Letzte Stimme
Gideon Manaseh Ikorodu City Aktiv 96 / 94 40% 2 02.12.2028 -
Björn Hedlöf Helsingborg Aktiv 94 / 93 40% 1 02.12.2028 -
Olivier Leroux Mouscron Aktiv 101 / 110 40% 1 02.12.2028 -
Brandon Vázquez Austin FC Aktiv 130 / 105 40% 3 29.11.2028 -
Walter Núñez Montevideo City Torque Aktiv 129 / 101 40% 5 29.11.2028 -
Francisco Bonfiglio Boston River Aktiv 119 / 117 40% 1 29.11.2028 -
Nicolás Ferreira Wanderers Aktiv 132 / 130 40% 4 28.11.2028 -
Emiliano Gómez Boston River Aktiv 136 / 99 40% 7 28.11.2028 -
Alexander Díaz Deportivo Riestra Aktiv 134 / 124 40% 4 28.11.2028 -
Juan Cruz de los Santos Nacional Aktiv 131 / 133 40% 7 27.11.2028 -
Rodrigo Auzmendi Banfield Aktiv 133 / 136 40% 2 27.11.2028 -
Máximo Munarriz San Telmo Aktiv 99 / 90 40% 5 26.11.2028 -
Anderson Acevedo Bogota Aktiv 88 / 111 40% 3 26.11.2028 -
Mauro Valiente Estudiantes Aktiv 110 / 120 40% 7 26.11.2028 -
Jefry Zapata Aldosivi Aktiv 121 / 121 40% 6 26.11.2028 -
Jonás Luna Wanderers Aktiv 131 / 141 40% 3 26.11.2028 -
Rene Hrvatin Istra 1961 Aktiv 116 / 107 40% 1 26.11.2028 -
Malte Heyde Esbjerg Aktiv 127 / 105 40% 1 25.11.2028 -
Miguel Figueiredo Benfica Aktiv 121 / 127 40% 3 22.11.2028 -
Ivan Borges Defensores Aktiv 89 / 76 40% 2 22.11.2028 -
João Klauss LA Galaxy Aktiv 114 / 122 40% 5 22.11.2028 -
Ramiro Ruiz Rodríguez Atlético Tucumán Aktiv 118 / 124 40% 4 22.11.2028 -
Esteban da Silva Racing Aktiv 128 / 122 40% 2 22.11.2028 -
Andrija Bulatović Chamois Niortais Aktiv 140 / 136 40% 1 22.11.2028 -
Matías Satas Grimsby Town Aktiv 106 / 109 40% 2 20.11.2028 -
Ignacio Russo Tigre Aktiv 125 / 139 40% 2 20.11.2028 -
Yousef Al-Tahan Al-Nassr Aktiv 92 / 89 40% 1 20.11.2028 -
Gonzalo Plata Nacional Aktiv 146 / 160 40% 2 17.11.2028 -
Jonás Acevedo Instituto Aktiv 133 / 139 40% 1 17.11.2028 -
Yoshan Valois Lanús Aktiv 119 / 142 40% 2 16.11.2028 -
Antony Alonso Deportivo Riestra Aktiv 123 / 110 40% 1 16.11.2028 -
Ignacio Ramírez Newell's Old Boys Aktiv 134 / 126 40% 3 15.11.2028 -
Ramadan Ashour Sporting Cristal Aktiv 124 / 103 40% 10 14.11.2028 -
Alexander Machado Penarol Aktiv 121 / 121 40% 1 14.11.2028 -
Nicolás Cordero Aldosivi Aktiv 115 / 110 40% 1 14.11.2028 -
Agustín Rodríguez Juventud Aktiv 124 / 146 40% 12 12.11.2028 -
Agustín Colazo Unión de Santa Fe Aktiv 132 / 125 40% 2 12.11.2028 -
Yota Komi Kashiwa Reysol Aktiv 131 / 111 40% 2 12.11.2028 -
Matías Arezo Penarol Aktiv 128 / 120 40% 6 11.11.2028 -
Mateo Bajamich Atlético Tucumán Aktiv 131 / 137 40% 2 05.11.2028 -
Agustín Alaniz Rentistas Aktiv 126 / 111 40% 3 05.11.2028 -
Esteban Obregón Montevideo City Torque Aktiv 115 / 133 40% 6 04.11.2028 -
Vegard Erlien Tromso Aktiv 137 / 133 40% 1 04.11.2028 -
Tomás Fernández Aldosivi Aktiv 112 / 130 40% 1 03.11.2028 -
Alejo Cruz Juventud Aktiv 131 / 106 40% 6 02.11.2028 -
Alexis Cuello San Lorenzo Aktiv 139 / 104 40% 6 02.11.2028 -
Lucas Carrizo Rentistas Aktiv 108 / 105 40% 1 20.10.2028 -
Luciano Cosentino Wanderers Aktiv 113 / 138 40% 10 19.10.2028 -
Santiago González Sporting Cristal Aktiv 118 / 131 40% 2 17.10.2028 -
Facundo Krüger Temperley Aktiv 109 / 118 40% 1 15.10.2028 -
Theo Corbeanu Toronto FC Aktiv 115 / 142 40% 3 14.10.2028 -
Agustín Paz Progreso Aktiv 107 / 94 40% 1 14.10.2028 -
Santiago Sala Güemes Aktiv 106 / 125 40% 4 12.10.2028 -
Daniel Barrea Godoy Cruz Aktiv 134 / 119 40% 2 11.10.2028 -
Erik Botheim Viking Aktiv 120 / 121 40% 1 11.10.2028 -
Luis Sandoval Independiente Medellin Aktiv 105 / 133 40% 1 10.10.2028 -
Victor Olatunji Real Salt Lake Aktiv 125 / 96 40% 1 09.10.2028 -
Jeong Sang-Bin St. Louis CITY SC Aktiv 109 / 115 40% 4 08.10.2028 -
Álvaro López Plaza Colonia Aktiv 108 / 98 40% 1 02.10.2028 -
Alonso Martínez New York City Aktiv 115 / 132 40% 1 20.09.2028 -
Morgan Guilavogui Real Salt Lake Aktiv 139 / 139 40% 2 18.09.2028 -
Duncan McGuire Houston Dynamo Aktiv 120 / 146 40% 2 16.09.2028 -
Nəriman Axundzadə Columbus Crew Aktiv 129 / 136 40% 1 16.09.2028 -
Mohamed Bendary ENPPI Aktiv 106 / 88 40% 1 06.09.2028 -
Celías Ingenthron Platense Aktiv 115 / 135 40% 1 06.09.2028 -
Alan Cantero Juan Aurich Aktiv 126 / 97 40% 1 06.09.2028 -
Adalberto Peñaranda Deportivo Tachira Aktiv 126 / 99 40% 1 05.09.2028 -
Ousmane Camara Al Ain Aktiv 137 / 134 40% 5 01.09.2028 -
Wandile Duba ASO Chlef Aktiv 104 / 133 40% 2 01.09.2028 -
Bandar Nader Al Shaab Aktiv 119 / 125 40% 2 30.08.2028 -
Leandro Suhr Boston River Aktiv 108 / 100 40% 2 30.08.2028 -
Aimen Mahious JS Kabylie Aktiv 115 / 104 40% 4 29.08.2028 -
Majed Al Junaibi Al Shabab Aktiv 124 / 133 40% 4 29.08.2028 -
Isaac Tshibangu Al Fujairah Aktiv 119 / 103 40% 2 26.08.2028 -
Ernie Weaver Sheffield Wednesday Aktiv 114 / 131 40% 1 26.08.2028 -
Lucas Silva River Plate Aktiv 111 / 133 40% 1 26.08.2028 -
Abdulrahman Hazazi Al-Ittihad Aktiv 95 / 108 40% 1 26.08.2028 -
Khanyisa Mayo CR Belouizdad Aktiv 120 / 100 40% 2 25.08.2028 -
Tiago Gordillo San Miguel Aktiv 79 / 101 40% 1 23.08.2028 -
Mateo Caballero Defensor Sporting Aktiv 104 / 124 40% 1 23.08.2028 -
Mohanad Ali Dibba Aktiv 122 / 116 40% 9 21.08.2028 -
Junior Horé Emirates Club Abgelehnt 106 / 99 65% 1 21.08.2028 Ablehnen
Jan Cedilnik Chikhura Aktiv 85 / 70 40% 1 21.08.2028 -
Estanislao López Colón Aktiv 86 / 87 40% 1 21.08.2028 -
Marco Tumminello Benevento Aktiv 129 / 117 40% 5 19.08.2028 -
Vanja Vlahović Spezia Aktiv 133 / 143 40% 2 19.08.2028 -
Thomas Amang Baniyas Aktiv 120 / 114 40% 1 18.08.2028 -
Pedro Marques Apollon Aktiv 118 / 103 40% 2 17.08.2028 -
Gabriele Gori Ascoli Aktiv 123 / 112 40% 8 15.08.2028 -
Emanuele Schimmenti Potenza Aktiv 118 / 106 40% 7 15.08.2028 -
Jérémy Le Douaron Palermo Aktiv 138 / 140 40% 1 14.08.2028 -
Simone Mazzocchi Cosenza Aktiv 126 / 109 40% 8 12.08.2028 -
Stephen Humphrys Bradford City Aktiv 115 / 118 40% 13 08.08.2028 -
Kyle Wootton Stockport County Aktiv 126 / 124 40% 13 08.08.2028 -
Aaron Collins Milton Keynes Dons Aktiv 125 / 114 40% 8 07.08.2028 -
Rashed Essa Juma Emirates Club Abgelehnt 89 / 114 65% 1 07.08.2028 -
Ole Romeny Oxford United Aktiv 116 / 128 40% 2 05.08.2028 -
Christian Saydee Wigan Athletic Aktiv 122 / 131 40% 6 04.08.2028 -
Lamine Guèye Exeter City Aktiv 123 / 124 40% 2 04.08.2028 -
Erick Dolly Black Aces Aktiv 135 / 120 40% 6 03.08.2028 -
Arthur Sales Maritzburg United Aktiv 130 / 128 40% 8 03.08.2028 -
Camillo Tavernelli Arezzo Aktiv 119 / 135 40% 11 02.08.2028 -
Luca Vido Union Brescia Aktiv 121 / 113 40% 4 02.08.2028 -
Edoardo Soleri Bari Aktiv 124 / 123 40% 2 01.08.2028 -
Ramón Mierez Al Nasr Aktiv 140 / 119 40% 3 31.07.2028 -
Mehdi Noorafkan Padideh Aktiv 96 / 110 40% 2 31.07.2028 -
Mateo Faure BATE Aktiv 86 / 105 40% 2 31.07.2028 -
Matteo Rover Reggiana Aktiv 119 / 114 40% 1 31.07.2028 -
Lamine Bèye Portimonense Aktiv 123 / 129 40% 2 30.07.2028 -
Martim Cunha Porto Aktiv 117 / 116 40% 1 29.07.2028 -
Walid Cheddira Avellino Aktiv 134 / 138 40% 4 26.07.2028 -
Nicola Rauti Vicenza Aktiv 127 / 126 40% 3 25.07.2028 -
Alejandro Cantero Jomo Cosmos Aktiv 125 / 104 40% 1 25.07.2028 -
Jalen Blesa Oliveirense Aktiv 135 / 125 40% 3 24.07.2028 -
Moussa Koné Al-Ra'ed Aktiv 125 / 110 40% 8 20.07.2028 -
Liam Cullen Swansea City Aktiv 125 / 117 40% 3 20.07.2028 -
Seth Ridgeon Fulham Aktiv 96 / 117 40% 1 17.07.2028 -
Tobías Ramírez River Plate Aktiv 127 / 110 40% 1 17.07.2028 -
Dmytro Strilchuk Podillia Aktiv 80 / 78 40% 1 17.07.2028 -
Cesare Galeotti Trapani Aktiv 119 / 123 40% 2 10.07.2028 -
Nathan Bishop AFC Wimbledon Aktiv 125 / 132 40% 1 10.07.2028 -
Daniele Sommariva Gillingham Aktiv 116 / 108 40% 1 10.07.2028 -
Myles Roberts Cambridge United Aktiv 109 / 102 40% 2 09.07.2028 -
Jonathan Klinsmann Cesena Aktiv 134 / 123 40% 1 09.07.2028 -
Ichem Ferrah Livorno Aktiv 118 / 118 40% 2 07.07.2028 -
Jorge Cabezas Hurtado Watford Aktiv 119 / 113 40% 2 07.07.2028 -
Wilfried Kanga Al-Fateh Aktiv 132 / 137 40% 6 06.07.2028 -
Siyabonga Mabena Bidvest Wits Aktiv 118 / 131 40% 1 06.07.2028 -
Miro Arsenal Tula Aktiv 115 / 121 40% 10 05.07.2028 -
Samuele Perisan Reggiana Aktiv 125 / 119 40% 1 05.07.2028 -
Killian Cahill Leyton Orient Aktiv 121 / 117 40% 1 05.07.2028 -
Maílson Al-Taawoun Aktiv 127 / 128 40% 1 05.07.2028 -
Alexei Rojas Fedorushchenko Barrow AFC Aktiv 130 / 132 40% 2 04.07.2028 -
George Evans Exeter City Aktiv 110 / 116 40% 1 04.07.2028 -
Filippo Manfrin Arzignano Aktiv 114 / 123 40% 1 04.07.2028 -
Mohammad Alsalkhadi Al-Wehda Aktiv 112 / 121 40% 4 02.07.2028 -
Kamaldeen Atiemo Wa All Stars Aktiv 106 / 97 40% 1 01.07.2028 -
Peyton Miller New England Revolution Aktiv 104 / 118 40% 1 30.06.2028 -
Riquelme Thompson-Jones Accrington Stanley Aktiv 118 / 126 40% 1 30.06.2028 -
Samuel Kalu Botev Plovdiv Aktiv 131 / 146 40% 2 29.06.2028 -
Maxim Radchenko Rostov Aktiv 89 / 114 40% 1 28.06.2028 -
Morteza Torabi Malavan Aktiv 105 / 117 40% 1 27.06.2028 -
Nicolò Moranduzzo Renate Aktiv 88 / 106 40% 1 27.06.2028 -
Diego Vargas Universidad de Concepcion Aktiv 93 / 111 40% 1 26.06.2028 -
Kubrat Onasci Septemvri Aktiv 117 / 114 40% 1 26.06.2028 -
Jônatas Al Ain Aktiv 134 / 124 40% 2 20.06.2028 -
Igor Tyjon Barrow AFC Aktiv 114 / 127 40% 2 18.06.2028 -
Kristjan Matošević Triestina Aktiv 114 / 101 40% 1 18.06.2028 -
Zakaria Bouhalfaya CS Constantine Aktiv 122 / 111 40% 1 17.06.2028 -
Sam Proctor Salford City Aktiv 128 / 120 40% 2 14.06.2028 -
Dylan Moody Cheltenham Town Aktiv 119 / 134 40% 2 13.06.2028 -
Vladan Kovačević Norwich City Aktiv 137 / 121 40% 1 13.06.2028 -
Oufa Shobeir MC Alger Aktiv 135 / 130 40% 1 09.06.2028 -
Rayan Kolli Queens Park Rangers Aktiv 117 / 127 40% 1 07.06.2028 -
Nikolai Rehnen Grimsby Town Aktiv 118 / 107 40% 1 06.06.2028 -
Will Mannion Charlton Athletic Aktiv 119 / 110 40% 1 06.06.2028 -
Sam Dalby Bolton Wanderers Aktiv 109 / 105 40% 1 02.06.2028 -
Yakou Meïté Damac Aktiv 112 / 113 40% 7 29.05.2028 -
Peter Olayinka Al-Wehda Abgelehnt 124 / 114 40% 9 28.05.2028 Ablehnen
Haitham Asiri Hajer Aktiv 120 / 105 40% 6 26.05.2028 -
Elijah Adebayo Luton Town Aktiv 128 / 136 40% 1 25.05.2028 -
Ryan Kavuma-McQueen Accrington Stanley Aktiv 124 / 124 40% 6 23.05.2028 -
Sam Smith Wrexham Abgelehnt 126 / 122 40% 1 23.05.2028 -
Job Ochieng Real Sociedad Aktiv 116 / 110 40% 2 21.05.2028 -
Ben Ahmed Kohili Paradou Aktiv 109 / 119 40% 2 20.05.2028 -
Giuseppe Panico Foggia Aktiv 124 / 113 40% 2 12.05.2028 -
Gennaro Tutino Sampdoria Aktiv 131 / 112 40% 1 12.05.2028 -
Layton Stewart Barnet Aktiv 117 / 110 40% 3 11.05.2028 -
Marcus Browne AFC Wimbledon Aktiv 116 / 124 40% 2 10.05.2028 -
Karim El Berkaoui Al-Khaleej Aktiv 121 / 116 40% 2 09.05.2028 -
Domagoj Drožđek Tractor Aktiv 125 / 137 40% 5 08.05.2028 -
Admir Bristrić Cambridge United Aktiv 104 / 121 40% 2 08.05.2028 -
Billal Messaoudi JS Kabylie Aktiv 117 / 140 40% 1 02.05.2028 -
Elton Acolatse Pafos Aktiv 116 / 110 40% 2 28.04.2028 -
Renato Kayser Vitória Aktiv 127 / 124 40% 2 15.04.2028 -
Rui Costa Port Vale Aktiv 110 / 106 40% 2 07.04.2028 -
Timur Suleimanov Nizhniy Novgorod Aktiv 108 / 131 40% 1 07.04.2028 -
Yuri Tanque Criciuma Aktiv 126 / 102 40% 1 30.03.2028 -
Etiosa Ighodaro Kaizer Chiefs Aktiv 105 / 140 40% 1 25.03.2028 -
Luca Meirelles Kudrivka Aktiv 119 / 147 40% 1 17.03.2028 -
Franco Cristaldo Talleres Aktiv 125 / 132 40% 1 05.08.2026 -
Robert Taylor HJK Aktiv 135 / 112 40% 1 05.08.2026 -